Time;durP1;ratioP1;P1;durP2;ratioP2;P2;SDS_P1;SDS_P2;PMS_P1;PMS_P2;Temp;Humidity;BMP_temperature;BMP_pressure;BME280_temperature;BME280_humidity;BME280_pressure;Samples;Min_cycle;Max_cycle;Signal;HPM_P1;HPM_P2
2022/10/19 00:00:44;;;;;;;7.03;1.40;;;10.70;99.90;;;;;;5067983;28;20071;-70
2022/10/19 00:03:10;;;;;;;10.63;1.85;;;10.70;99.90;;;;;;5069604;28;20055;-70
2022/10/19 00:05:35;;;;;;;10.73;1.73;;;10.70;99.90;;;;;;5069048;28;20154;-70
2022/10/19 00:08:01;;;;;;;9.60;1.40;;;10.70;99.90;;;;;;5063792;28;20464;-70
2022/10/19 00:10:27;;;;;;;11.68;1.95;;;10.70;99.90;;;;;;5065515;28;20052;-70
2022/10/19 00:12:53;;;;;;;7.32;1.45;;;10.70;99.90;;;;;;5051655;28;20118;-70
2022/10/19 00:15:19;;;;;;;10.40;1.67;;;10.70;99.90;;;;;;5067609;28;20075;-70
2022/10/19 00:17:44;;;;;;;8.50;1.75;;;10.70;99.90;;;;;;5064961;28;20071;-70
2022/10/19 00:20:11;;;;;;;8.85;1.48;;;10.70;99.90;;;;;;5069233;28;20075;-70
2022/10/19 00:22:37;;;;;;;6.97;1.50;;;10.70;99.90;;;;;;5063112;28;20052;-70
2022/10/19 00:25:06;;;;;;;9.80;2.38;;;10.70;99.90;;;;;;5067690;28;20033;-70
2022/10/19 00:27:32;;;;;;;6.30;1.60;;;10.70;99.90;;;;;;5067596;28;20049;-70
2022/10/19 00:29:58;;;;;;;6.57;1.33;;;10.70;99.90;;;;;;5064736;28;20047;-70
2022/10/19 00:32:23;;;;;;;5.18;1.38;;;10.70;99.90;;;;;;5065850;28;20045;-71
2022/10/19 00:34:49;;;;;;;8.35;1.42;;;10.70;99.90;;;;;;5066788;28;20034;-70
2022/10/19 00:37:15;;;;;;;6.10;1.50;;;10.60;99.90;;;;;;5065072;28;20062;-68
2022/10/19 00:39:40;;;;;;;6.47;1.50;;;10.60;99.90;;;;;;5068371;28;20032;-71
2022/10/19 00:42:10;;;;;;;9.85;1.77;;;10.60;99.90;;;;;;5065847;28;20044;-70
2022/10/19 00:44:35;;;;;;;9.18;1.45;;;10.60;99.90;;;;;;5046354;28;20044;-71
2022/10/19 00:47:06;;;;;;;9.77;2.08;;;10.60;99.90;;;;;;5066494;28;20558;-70
2022/10/19 00:49:38;;;;;;;5.90;1.60;;;10.60;99.90;;;;;;5068337;28;20033;-70
2022/10/19 00:52:15;;;;;;;7.13;1.50;;;10.60;99.90;;;;;;5065893;28;20497;-70
2022/10/19 00:54:42;;;;;;;6.82;1.98;;;10.60;99.90;;;;;;5064972;28;20048;-70
2022/10/19 00:57:09;;;;;;;5.38;1.52;;;10.80;99.90;;;;;;5063326;28;20052;-70
2022/10/19 00:59:37;;;;;;;7.43;1.70;;;10.60;99.90;;;;;;5064027;28;20036;-70
2022/10/19 01:02:04;;;;;;;12.35;2.38;;;10.60;99.90;;;;;;5048145;28;20044;-70
2022/10/19 01:04:33;;;;;;;8.15;1.77;;;10.60;99.90;;;;;;5066767;28;20041;-71
2022/10/19 01:07:00;;;;;;;6.03;1.38;;;10.60;99.90;;;;;;5068853;28;20048;-71
2022/10/19 01:09:26;;;;;;;8.23;1.58;;;10.60;99.90;;;;;;5063329;28;20037;-71
2022/10/19 01:12:04;;;;;;;8.68;1.77;;;10.60;99.90;;;;;;5068142;28;20547;-71
2022/10/19 01:15:01;;;;;;;5.60;1.85;;;10.60;99.90;;;;;;5065922;28;20559;-71
2022/10/19 01:17:42;;;;;;;8.70;1.75;;;10.60;99.90;;;;;;5067056;28;20036;-71
2022/10/19 01:20:49;;;;;;;12.52;3.08;;;10.60;99.90;;;;;;5068088;28;20676;-70
2022/10/19 01:23:42;;;;;;;9.85;1.70;;;10.60;99.90;;;;;;5067650;28;20052;-70
2022/10/19 01:26:40;;;;;;;8.07;1.73;;;10.60;99.90;;;;;;5069432;28;20489;-70
2022/10/19 01:29:34;;;;;;;7.45;1.30;;;10.70;99.90;;;;;;5050194;28;20555;-70
2022/10/19 01:32:22;;;;;;;6.80;1.60;;;10.60;99.90;;;;;;5067882;28;20047;-71
2022/10/19 01:34:48;;;;;;;9.50;1.50;;;10.60;99.90;;;;;;5063145;28;20048;-70
2022/10/19 01:37:39;;;;;;;6.85;1.73;;;10.60;99.90;;;;;;5056211;28;20045;-70
2022/10/19 01:40:14;;;;;;;;;;;10.60;99.90;;;;;;5059727;28;20409;-70
2022/10/19 01:43:04;;;;;;;7.40;1.58;;;10.70;99.90;;;;;;5049330;28;19959;-71
2022/10/19 01:45:42;;;;;;;8.07;1.17;;;10.60;99.90;;;;;;5067810;28;20082;-71
2022/10/19 01:48:14;;;;;;;15.52;1.70;;;10.60;99.90;;;;;;5067836;28;20127;-72
2022/10/19 01:50:42;;;;;;;9.85;1.40;;;10.60;99.90;;;;;;5068009;28;20463;-72
2022/10/19 01:53:11;;;;;;;9.75;1.30;;;10.60;99.90;;;;;;5067729;28;20052;-72
2022/10/19 01:55:41;;;;;;;9.77;1.42;;;10.60;99.90;;;;;;5067203;28;20048;-71
2022/10/19 01:58:10;;;;;;;10.20;1.65;;;10.60;99.90;;;;;;5068786;28;20090;-71
2022/10/19 02:00:38;;;;;;;9.90;1.45;;;10.90;99.90;;;;;;5068152;28;20464;-71
2022/10/19 02:03:05;;;;;;;10.25;1.42;;;10.60;99.90;;;;;;5069007;28;20102;-70
2022/10/19 02:05:33;;;;;;;8.57;1.20;;;10.60;99.90;;;;;;5067389;28;20413;-70
2022/10/19 02:08:03;;;;;;;8.40;2.10;;;10.60;99.90;;;;;;5067549;28;20378;-71
2022/10/19 02:10:31;;;;;;;6.40;1.05;;;10.60;99.90;;;;;;5067424;28;20055;-71
2022/10/19 02:12:58;;;;;;;6.82;1.40;;;10.60;99.90;;;;;;5067612;28;20075;-71
2022/10/19 02:15:27;;;;;;;8.55;1.48;;;10.60;99.90;;;;;;5067509;28;20523;-71
2022/10/19 02:17:56;;;;;;;7.75;1.42;;;10.70;99.90;;;;;;5051060;28;20127;-70
2022/10/19 02:20:22;;;;;;;8.25;1.15;;;10.60;99.90;;;;;;5050264;28;20556;-70
2022/10/19 02:22:49;;;;;;;7.32;1.10;;;10.60;99.90;;;;;;5066808;28;20523;-71
2022/10/19 02:25:15;;;;;;;6.22;1.30;;;10.70;99.90;;;;;;5067443;28;20401;-70
2022/10/19 02:27:42;;;;;;;9.48;1.40;;;10.60;99.90;;;;;;5067040;28;20083;-70
2022/10/19 02:30:14;;;;;;;6.70;1.08;;;10.60;99.90;;;;;;5067072;28;20056;-70
2022/10/19 02:32:41;;;;;;;6.05;1.10;;;10.70;99.90;;;;;;5066930;28;20052;-70
2022/10/19 02:35:07;;;;;;;6.95;1.30;;;10.70;99.90;;;;;;5067666;28;20080;-71
2022/10/19 02:37:33;;;;;;;8.27;1.30;;;10.70;99.90;;;;;;5066755;28;20448;-70
2022/10/19 02:39:59;;;;;;;10.63;1.48;;;10.70;99.90;;;;;;5068408;28;20094;-71
2022/10/19 02:42:31;;;;;;;6.00;1.50;;;10.70;99.90;;;;;;5065605;28;20534;-70
2022/10/19 02:44:59;;;;;;;8.73;1.60;;;10.70;99.90;;;;;;5068429;28;20486;-71
2022/10/19 02:47:34;;;;;;;8.68;1.67;;;10.60;99.90;;;;;;5068923;28;20625;-70
2022/10/19 02:50:03;;;;;;;9.05;1.38;;;10.70;99.90;;;;;;5051425;28;20079;-70
2022/10/19 02:52:29;;;;;;;8.98;1.35;;;10.80;99.90;;;;;;5067894;28;20481;-70
2022/10/19 02:54:55;;;;;;;9.52;1.70;;;10.90;99.90;;;;;;5068128;28;20073;-70
2022/10/19 02:57:23;;;;;;;6.70;1.30;;;10.70;99.90;;;;;;5068126;28;20078;-70
2022/10/19 02:59:50;;;;;;;8.18;0.93;;;10.60;99.90;;;;;;5067312;28;20105;-70
2022/10/19 03:02:16;;;;;;;10.52;1.42;;;10.60;99.90;;;;;;5050028;28;20064;-70
2022/10/19 03:04:43;;;;;;;6.75;1.45;;;10.60;99.90;;;;;;5066342;28;20097;-70
2022/10/19 03:07:10;;;;;;;13.52;1.40;;;10.60;99.90;;;;;;5045881;28;20076;-71
2022/10/19 03:09:36;;;;;;;8.02;1.58;;;10.60;99.90;;;;;;5080017;28;20048;-71
2022/10/19 03:12:02;;;;;;;9.40;1.33;;;10.60;99.90;;;;;;5082867;28;20063;-71
2022/10/19 03:14:27;;;;;;;9.55;1.23;;;10.50;99.90;;;;;;5065601;28;20040;-71
2022/10/19 03:16:53;;;;;;;10.27;1.35;;;10.50;99.90;;;;;;5050008;28;20573;-71
2022/10/19 03:19:19;;;;;;;8.93;1.48;;;10.50;99.90;;;;;;5098873;28;20090;-71
2022/10/19 03:21:45;;;;;;;10.10;1.17;;;10.50;99.90;;;;;;5067859;28;20048;-70
2022/10/19 03:24:11;;;;;;;6.65;1.02;;;10.50;99.90;;;;;;5066878;28;20040;-70
2022/10/19 03:26:37;;;;;;;6.78;1.85;;;10.40;99.90;;;;;;5066478;28;20040;-70
2022/10/19 03:29:03;;;;;;;9.45;1.67;;;10.50;99.90;;;;;;5066596;28;20076;-70
2022/10/19 03:31:29;;;;;;;11.45;1.60;;;10.40;99.90;;;;;;5069384;28;20103;-70
2022/10/19 03:33:54;;;;;;;9.55;1.10;;;10.40;99.90;;;;;;5070192;28;20080;-70
2022/10/19 03:36:32;;;;;;;14.32;1.20;;;10.40;99.90;;;;;;5052567;28;20056;-70
2022/10/19 03:39:00;;;;;;;6.65;1.05;;;10.30;99.90;;;;;;5069034;28;20047;-70
2022/10/19 03:41:28;;;;;;;9.07;1.48;;;10.30;99.90;;;;;;5051799;28;20526;-70
2022/10/19 03:43:54;;;;;;;9.60;1.00;;;10.30;99.90;;;;;;5052101;28;20052;-70
2022/10/19 03:46:21;;;;;;;9.52;1.38;;;10.30;99.90;;;;;;5049297;28;20037;-70
2022/10/19 03:48:47;;;;;;;6.75;1.13;;;10.30;99.90;;;;;;5055141;28;20113;-70
2022/10/19 03:51:18;;;;;;;7.30;1.20;;;10.20;99.90;;;;;;5070678;28;20044;-70
2022/10/19 03:53:44;;;;;;;;;;;10.20;99.90;;;;;;5051811;28;20492;-71
2022/10/19 03:56:18;;;;;;;5.05;0.88;;;10.50;99.90;;;;;;5057830;28;19927;-70
2022/10/19 03:58:45;;;;;;;8.77;1.20;;;10.20;99.90;;;;;;5070136;28;20082;-71
2022/10/19 04:01:14;;;;;;;5.95;1.08;;;10.20;99.90;;;;;;5070523;28;20049;-72
2022/10/19 04:03:40;;;;;;;5.40;1.42;;;10.20;99.90;;;;;;5069942;28;20055;-70
2022/10/19 04:06:13;;;;;;;8.75;1.02;;;10.20;99.90;;;;;;5070220;28;20044;-70
2022/10/19 04:08:39;;;;;;;6.43;1.15;;;10.20;99.90;;;;;;5070361;28;20424;-70
2022/10/19 04:11:07;;;;;;;7.07;1.08;;;10.20;99.90;;;;;;5070339;28;20052;-70
2022/10/19 04:13:34;;;;;;;8.30;1.10;;;10.20;99.90;;;;;;5070110;28;20489;-70
2022/10/19 04:16:00;;;;;;;5.95;1.17;;;10.20;99.90;;;;;;5052908;28;20694;-70
2022/10/19 04:18:26;;;;;;;13.32;1.58;;;10.20;99.90;;;;;;5069067;28;20040;-71
2022/10/19 04:20:56;;;;;;;10.93;1.52;;;10.20;99.90;;;;;;5053218;28;20083;-70
2022/10/19 04:23:23;;;;;;;9.60;1.27;;;10.30;99.90;;;;;;5069415;28;20087;-70
2022/10/19 04:25:49;;;;;;;8.15;1.08;;;10.20;99.90;;;;;;5069271;28;20053;-70
2022/10/19 04:28:14;;;;;;;7.53;1.30;;;10.30;99.90;;;;;;5068017;28;20063;-68
2022/10/19 04:30:40;;;;;;;8.02;1.20;;;10.20;99.90;;;;;;5070012;28;20413;-70
2022/10/19 04:33:06;;;;;;;9.43;1.15;;;10.50;99.90;;;;;;5070650;28;20044;-71
2022/10/19 04:35:32;;;;;;;7.55;1.10;;;10.20;99.90;;;;;;5069942;28;20110;-70
2022/10/19 04:37:58;;;;;;;8.07;1.70;;;10.20;99.90;;;;;;5068878;28;20098;-71
2022/10/19 04:40:24;;;;;;;10.63;1.70;;;10.20;99.90;;;;;;5069218;28;20086;-70
2022/10/19 04:42:49;;;;;;;12.18;1.80;;;10.20;99.90;;;;;;5068418;28;20048;-70
2022/10/19 04:45:15;;;;;;;15.30;1.75;;;10.20;99.90;;;;;;5068469;28;20470;-71
2022/10/19 04:47:41;;;;;;;8.45;1.17;;;10.20;99.90;;;;;;5069163;28;20091;-70
2022/10/19 04:50:07;;;;;;;9.05;1.35;;;10.20;99.90;;;;;;5067472;28;20060;-70
2022/10/19 04:52:34;;;;;;;11.27;1.40;;;10.20;99.90;;;;;;5066904;28;20070;-71
2022/10/19 04:55:00;;;;;;;8.50;1.25;;;10.30;99.90;;;;;;5059512;28;20037;-70
2022/10/19 04:57:25;;;;;;;10.00;1.25;;;10.20;99.90;;;;;;5048776;28;20044;-70
2022/10/19 04:59:51;;;;;;;9.57;1.70;;;10.20;99.90;;;;;;5046515;28;20049;-69
2022/10/19 05:02:17;;;;;;;9.48;1.55;;;10.20;99.90;;;;;;5046518;28;20118;-70
2022/10/19 05:04:43;;;;;;;8.45;1.70;;;10.20;99.90;;;;;;5049371;28;20127;-70
2022/10/19 05:07:08;;;;;;;12.18;1.35;;;10.20;99.90;;;;;;5066576;28;20049;-70
2022/10/19 05:09:34;;;;;;;11.45;1.73;;;10.20;99.90;;;;;;5067393;28;20071;-70
2022/10/19 05:12:00;;;;;;;11.68;1.50;;;10.20;99.90;;;;;;5068493;28;20131;-70
2022/10/19 05:14:26;;;;;;;18.40;1.70;;;10.20;99.90;;;;;;5068618;28;20432;-70
2022/10/19 05:16:51;;;;;;;14.38;2.08;;;10.50;99.90;;;;;;5050707;28;20083;-70
2022/10/19 05:19:17;;;;;;;16.27;2.50;;;10.20;99.90;;;;;;5067468;28;20089;-71
2022/10/19 05:21:43;;;;;;;13.65;1.83;;;10.20;99.90;;;;;;5067467;28;20531;-70
2022/10/19 05:24:12;;;;;;;11.27;1.67;;;10.20;99.90;;;;;;5040217;28;20045;-70
2022/10/19 05:26:37;;;;;;;12.82;2.17;;;10.30;99.90;;;;;;5039225;28;20083;-70
2022/10/19 05:29:03;;;;;;;10.68;1.65;;;10.30;99.90;;;;;;5059942;28;244078;-70
2022/10/19 05:31:33;;;;;;;10.18;1.42;;;10.30;99.90;;;;;;5052530;28;20128;-70
2022/10/19 05:33:59;;;;;;;9.60;1.35;;;10.60;99.90;;;;;;5049842;28;20044;-71
2022/10/19 05:36:33;;;;;;;11.10;1.13;;;10.50;99.90;;;;;;5059080;28;20703;-70
2022/10/19 05:39:01;;;;;;;23.65;1.92;;;10.30;99.90;;;;;;5067875;28;20041;-70
2022/10/19 05:41:27;;;;;;;17.02;2.00;;;10.30;99.90;;;;;;5067903;28;20060;-70
2022/10/19 05:43:58;;;;;;;9.45;1.80;;;10.30;99.90;;;;;;5058325;28;20037;-69
2022/10/19 05:46:25;;;;;;;10.83;1.87;;;10.30;99.90;;;;;;5060857;28;20041;-71
2022/10/19 05:48:51;;;;;;;11.23;1.73;;;10.80;99.90;;;;;;5067243;28;20568;-71
2022/10/19 05:51:19;;;;;;;13.43;1.73;;;10.40;99.90;;;;;;5066295;28;20056;-71
2022/10/19 05:53:45;;;;;;;16.20;2.05;;;10.40;99.90;;;;;;5079660;28;20045;-71
2022/10/19 05:56:30;;;;;;;12.60;1.38;;;10.70;99.90;;;;;;5049436;28;20516;-70
2022/10/19 05:58:58;;;;;;;10.73;1.60;;;10.40;99.90;;;;;;5081694;28;20056;-71
2022/10/19 06:01:24;;;;;;;11.10;1.48;;;10.40;99.90;;;;;;5047849;28;20406;-70
2022/10/19 06:03:54;;;;;;;17.05;1.73;;;10.40;99.90;;;;;;5056867;28;20037;-71
2022/10/19 06:06:20;;;;;;;18.33;1.80;;;10.40;99.90;;;;;;5064114;28;20452;-70
2022/10/19 06:08:47;;;;;;;17.10;1.83;;;10.40;99.90;;;;;;5061239;28;20086;-71
2022/10/19 06:11:28;;;;;;;17.30;1.80;;;10.40;99.90;;;;;;5055487;28;20048;-70
2022/10/19 06:13:56;;;;;;;14.17;1.33;;;10.40;99.90;;;;;;5051644;28;20036;-70
2022/10/19 06:16:23;;;;;;;14.07;1.90;;;10.40;99.90;;;;;;5057084;28;20311;-71
2022/10/19 06:18:49;;;;;;;13.05;1.77;;;10.40;99.90;;;;;;5067303;28;20052;-71
2022/10/19 06:21:19;;;;;;;16.00;1.73;;;10.30;99.90;;;;;;5068867;28;20074;-71
2022/10/19 06:23:53;;;;;;;15.75;1.73;;;10.30;99.90;;;;;;5069040;28;20132;-72
2022/10/19 06:26:20;;;;;;;13.40;1.55;;;10.30;99.90;;;;;;5066014;28;20064;-69
2022/10/19 06:28:47;;;;;;;6.53;1.17;;;10.40;99.90;;;;;;5060398;28;20140;-71
2022/10/19 06:31:13;;;;;;;11.73;1.50;;;10.40;99.90;;;;;;5036007;28;20036;-71
2022/10/19 06:33:40;;;;;;;14.52;1.50;;;10.70;99.90;;;;;;5051376;28;20047;-71
2022/10/19 06:36:14;;;;;;;8.73;1.70;;;10.40;99.90;;;;;;5062166;28;20413;-71
2022/10/19 06:38:40;;;;;;;17.00;2.10;;;10.40;99.90;;;;;;5061245;28;20056;-70
2022/10/19 06:41:09;;;;;;;13.18;1.60;;;10.40;99.90;;;;;;5061961;28;20048;-70
2022/10/19 06:43:35;;;;;;;14.13;2.25;;;10.40;99.90;;;;;;5065960;28;20633;-71
2022/10/19 06:46:09;;;;;;;10.57;1.40;;;10.60;99.90;;;;;;5067327;28;20044;-71
2022/10/19 06:48:35;;;;;;;10.73;1.73;;;10.50;99.90;;;;;;5060520;28;20512;-71
2022/10/19 06:51:04;;;;;;;11.30;1.88;;;10.50;99.90;;;;;;5067109;28;20048;-71
2022/10/19 06:53:30;;;;;;;9.52;1.25;;;10.50;99.90;;;;;;5067216;28;20054;-71
2022/10/19 06:55:59;;;;;;;9.95;1.90;;;10.50;99.90;;;;;;5066676;28;20464;-70
2022/10/19 06:58:25;;;;;;;10.65;1.67;;;10.60;99.90;;;;;;5064423;28;20037;-70
2022/10/19 07:00:58;;;;;;;12.95;1.35;;;10.60;99.90;;;;;;5064473;28;20074;-70
2022/10/19 07:03:27;;;;;;;13.25;1.65;;;10.70;99.90;;;;;;5062346;28;20032;-70
2022/10/19 07:06:01;;;;;;;14.50;1.88;;;10.70;99.90;;;;;;5064756;28;20048;-70
2022/10/19 07:08:28;;;;;;;10.43;1.20;;;11.00;99.90;;;;;;5061210;28;20039;-71
2022/10/19 07:11:00;;;;;;;9.80;1.30;;;10.70;99.90;;;;;;5062534;28;20121;-70
2022/10/19 07:13:27;;;;;;;7.57;1.10;;;10.70;99.90;;;;;;5065831;28;20079;-70
2022/10/19 07:16:02;;;;;;;13.35;1.42;;;10.80;99.90;;;;;;5066664;28;20041;-70
2022/10/19 07:18:28;;;;;;;13.15;1.42;;;10.80;99.90;;;;;;5048291;28;20375;-70
2022/10/19 07:20:59;;;;;;;11.07;1.30;;;10.80;99.90;;;;;;5063946;28;20128;-70
2022/10/19 07:23:27;;;;;;;15.75;1.85;;;10.80;99.90;;;;;;5063281;28;20031;-70
2022/10/19 07:25:59;;;;;;;11.00;1.50;;;10.90;99.90;;;;;;5067396;28;20044;-70
2022/10/19 07:28:25;;;;;;;10.30;1.30;;;10.90;99.90;;;;;;5065098;28;20528;-70
2022/10/19 07:30:50;;;;;;;10.15;1.30;;;10.90;99.90;;;;;;5062401;28;20056;-70
2022/10/19 07:33:16;;;;;;;10.02;1.42;;;10.90;99.90;;;;;;5063827;28;20137;-70
2022/10/19 07:35:42;;;;;;;10.98;1.75;;;10.90;99.90;;;;;;5059265;28;20049;-70
2022/10/19 07:38:08;;;;;;;8.88;1.50;;;10.80;99.90;;;;;;5062991;28;20051;-71
2022/10/19 07:40:34;;;;;;;8.70;1.52;;;10.90;99.90;;;;;;5061753;28;20434;-70
2022/10/19 07:43:00;;;;;;;12.52;2.15;;;10.90;99.90;;;;;;5065890;28;20557;-70
2022/10/19 07:45:26;;;;;;;9.70;1.50;;;11.20;99.90;;;;;;5066216;28;20144;-71
2022/10/19 07:47:51;;;;;;;10.93;1.42;;;10.90;99.90;;;;;;5065752;28;20044;-71
2022/10/19 07:50:17;;;;;;;12.27;1.50;;;11.00;99.90;;;;;;5063230;28;20408;-71
2022/10/19 07:52:43;;;;;;;10.00;1.20;;;11.00;99.90;;;;;;5060255;28;20225;-71
2022/10/19 07:55:08;;;;;;;11.48;1.40;;;11.00;99.90;;;;;;5062921;28;20040;-70
2022/10/19 07:57:35;;;;;;;9.98;1.83;;;11.00;99.90;;;;;;5061679;28;20040;-71
2022/10/19 08:00:01;;;;;;;10.25;1.52;;;11.00;99.90;;;;;;5064418;28;20051;-70
2022/10/19 08:02:26;;;;;;;14.20;1.27;;;11.00;99.90;;;;;;5054624;28;20275;-70
2022/10/19 08:04:52;;;;;;;11.43;1.85;;;11.00;99.90;;;;;;5063410;28;20041;-70
2022/10/19 08:07:18;;;;;;;10.63;1.35;;;11.00;99.90;;;;;;5060360;28;20045;-70
2022/10/19 08:09:43;;;;;;;10.05;1.58;;;11.00;99.90;;;;;;5051314;28;20076;-71
2022/10/19 08:12:09;;;;;;;6.25;1.25;;;11.10;99.90;;;;;;5037605;28;20053;-70
2022/10/19 08:14:35;;;;;;;13.93;1.50;;;11.10;99.90;;;;;;5058097;28;20152;-70
2022/10/19 08:17:00;;;;;;;11.38;1.90;;;11.10;99.90;;;;;;5068844;28;20159;-71
2022/10/19 08:19:26;;;;;;;9.77;1.55;;;11.10;99.90;;;;;;5065190;28;20040;-71
2022/10/19 08:21:52;;;;;;;11.10;1.60;;;11.10;99.90;;;;;;5091237;28;20101;-70
2022/10/19 08:24:19;;;;;;;12.48;1.85;;;11.20;99.90;;;;;;5063360;28;20041;-71
2022/10/19 08:26:45;;;;;;;10.95;1.30;;;11.20;99.90;;;;;;5070420;28;20052;-71
2022/10/19 08:29:13;;;;;;;18.10;1.60;;;11.20;99.90;;;;;;5062352;28;20418;-69
2022/10/19 08:31:41;;;;;;;15.27;2.17;;;11.20;99.90;;;;;;5053788;28;20506;-71
2022/10/19 08:34:07;;;;;;;10.50;1.48;;;11.30;99.90;;;;;;5061672;28;20481;-71
2022/10/19 08:36:34;;;;;;;9.63;1.42;;;11.30;99.90;;;;;;5057842;28;20383;-71
2022/10/19 08:39:01;;;;;;;7.85;1.65;;;11.30;99.90;;;;;;5066140;28;20037;-72
2022/10/19 08:42:07;;;;;;;15.88;1.85;;;11.30;99.90;;;;;;5069185;28;20180;-72
2022/10/19 08:44:46;;;;;;;11.90;1.40;;;11.40;99.90;;;;;;5041787;28;20095;-69
2022/10/19 08:47:45;;;;;;;9.82;1.65;;;11.50;99.90;;;;;;5085550;28;20095;-70
2022/10/19 08:50:18;;;;;;;10.10;1.52;;;11.20;99.90;;;;;;5084244;27;20054;-71
2022/10/19 08:52:50;;;;;;;10.65;1.60;;;11.50;99.90;;;;;;5069525;28;20106;-70
2022/10/19 08:55:22;;;;;;;12.48;1.30;;;11.50;99.90;;;;;;5062512;28;20094;-71
2022/10/19 08:58:13;;;;;;;17.23;1.70;;;11.50;99.90;;;;;;5060134;28;20068;-70
2022/10/19 09:00:55;;;;;;;12.30;1.38;;;11.60;99.90;;;;;;5057528;28;20044;-71
2022/10/19 09:03:46;;;;;;;8.98;1.80;;;11.60;99.90;;;;;;5062240;28;20130;-71
2022/10/19 09:06:33;;;;;;;8.50;1.73;;;11.60;99.90;;;;;;5067502;28;20108;-71
2022/10/19 09:08:59;;;;;;;10.43;1.75;;;11.60;99.90;;;;;;5045906;28;20124;-70
2022/10/19 09:11:30;;;;;;;11.02;1.65;;;11.70;99.90;;;;;;5061929;28;20715;-71
2022/10/19 09:14:11;;;;;;;11.20;1.40;;;11.70;99.90;;;;;;5060980;28;20120;-70
2022/10/19 09:16:37;;;;;;;;;;;11.70;99.90;;;;;;5058989;28;20107;-71
2022/10/19 09:19:20;;;;;;;8.77;1.08;;;11.70;99.90;;;;;;5064501;28;20331;-70
2022/10/19 09:21:50;;;;;;;12.35;2.08;;;11.70;99.90;;;;;;5059745;28;20874;-70
2022/10/19 09:24:33;;;;;;;13.98;1.70;;;11.80;99.90;;;;;;5060946;28;20473;-71
2022/10/19 09:27:00;;;;;;;12.80;1.75;;;11.80;99.90;;;;;;5044384;28;20036;-71
2022/10/19 09:29:43;;;;;;;14.77;1.63;;;11.80;99.90;;;;;;5058579;28;20407;-69
2022/10/19 09:32:24;;;;;;;8.52;1.35;;;11.80;99.90;;;;;;5059880;28;20037;-70
2022/10/19 09:34:54;;;;;;;9.07;1.83;;;11.80;99.90;;;;;;5060456;28;20072;-70
2022/10/19 09:37:20;;;;;;;10.20;1.48;;;11.90;99.90;;;;;;5049706;28;20720;-70
2022/10/19 09:39:46;;;;;;;7.85;1.25;;;11.90;99.90;;;;;;5066069;28;20040;-70
2022/10/19 09:42:22;;;;;;;10.52;1.02;;;11.90;99.90;;;;;;5068418;28;20054;-70
2022/10/19 09:44:50;;;;;;;13.02;2.05;;;11.90;99.90;;;;;;5057802;28;20036;-70
2022/10/19 09:47:30;;;;;;;8.30;1.50;;;11.90;99.90;;;;;;5060915;28;20595;-70
2022/10/19 09:50:23;;;;;;;9.82;1.48;;;11.90;99.90;;;;;;5065383;28;20040;-70
2022/10/19 09:52:57;;;;;;;12.27;1.23;;;12.00;99.90;;;;;;5048324;28;20098;-70
2022/10/19 09:55:40;;;;;;;8.38;1.25;;;12.00;99.90;;;;;;5060122;28;20052;-71
2022/10/19 09:58:12;;;;;;;12.18;1.38;;;12.00;99.90;;;;;;5065202;28;20067;-70
2022/10/19 10:00:43;;;;;;;13.70;1.55;;;12.00;99.90;;;;;;5065537;28;20044;-70
2022/10/19 10:03:29;;;;;;;9.98;1.67;;;12.10;99.90;;;;;;5065777;28;20043;-70
2022/10/19 10:06:22;;;;;;;8.60;1.77;;;12.10;99.90;;;;;;5063737;28;20045;-71
2022/10/19 10:08:56;;;;;;;13.73;1.40;;;12.10;99.90;;;;;;5045769;28;20484;-70
2022/10/19 10:11:39;;;;;;;6.88;1.20;;;12.10;99.90;;;;;;5063414;28;20560;-70
2022/10/19 10:14:32;;;;;;;5.40;1.13;;;12.10;99.90;;;;;;5049526;28;20047;-70
2022/10/19 10:17:05;;;;;;;11.98;1.50;;;12.10;99.90;;;;;;5028812;28;20059;-70
2022/10/19 10:19:34;;;;;;;7.57;1.30;;;12.10;99.90;;;;;;5065530;28;20418;-70
2022/10/19 10:22:02;;;;;;;10.98;1.23;;;12.20;99.90;;;;;;5069779;28;20044;-70
2022/10/19 10:24:32;;;;;;;8.70;1.23;;;12.20;99.90;;;;;;5068027;28;20133;-70
2022/10/19 10:27:01;;;;;;;8.40;1.30;;;12.20;99.90;;;;;;5067964;28;20127;-70
2022/10/19 10:29:27;;;;;;;12.52;1.38;;;12.20;99.90;;;;;;5066947;28;20506;-70
2022/10/19 10:32:03;;;;;;;6.03;1.20;;;12.20;99.90;;;;;;5063948;28;20146;-70
2022/10/19 10:34:31;;;;;;;11.77;1.73;;;12.20;99.90;;;;;;5057287;28;20045;-70
2022/10/19 10:36:58;;;;;;;11.07;1.60;;;12.30;99.90;;;;;;5035268;28;20155;-70
2022/10/19 10:39:25;;;;;;;14.02;1.63;;;12.30;99.90;;;;;;5055114;28;20033;-70
2022/10/19 10:41:53;;;;;;;11.50;1.60;;;12.40;99.90;;;;;;5089113;28;20052;-70
2022/10/19 10:44:23;;;;;;;9.95;1.50;;;12.40;99.90;;;;;;5063331;28;20095;-71
2022/10/19 10:46:55;;;;;;;10.80;1.42;;;12.40;99.90;;;;;;5066336;28;20052;-71
2022/10/19 10:49:33;;;;;;;13.30;1.98;;;12.40;99.90;;;;;;5064167;28;20048;-71
2022/10/19 10:52:19;;;;;;;9.15;1.33;;;12.50;99.90;;;;;;5065028;28;20039;-71
2022/10/19 10:55:07;;;;;;;9.93;1.50;;;12.50;99.90;;;;;;5062977;28;20048;-71
2022/10/19 10:57:45;;;;;;;10.50;1.45;;;12.60;99.90;;;;;;5063802;28;20058;-70
2022/10/19 11:00:20;;;;;;;13.75;1.52;;;12.60;99.90;;;;;;5057148;28;20600;-70
2022/10/19 11:02:48;;;;;;;7.53;1.80;;;12.60;99.90;;;;;;5065335;28;20033;-70
2022/10/19 11:05:18;;;;;;;6.68;1.13;;;12.70;99.90;;;;;;5062909;28;20101;-70
2022/10/19 11:07:47;;;;;;;8.02;1.45;;;12.80;99.90;;;;;;5049765;28;20041;-70
2022/10/19 11:10:38;;;;;;;8.50;1.42;;;12.80;99.90;;;;;;5046464;28;20055;-70
2022/10/19 11:13:14;;;;;;;9.02;1.77;;;12.80;99.90;;;;;;5063601;28;20389;-70
2022/10/19 11:16:05;;;;;;;8.85;1.30;;;12.80;99.90;;;;;;5048150;28;20527;-70
2022/10/19 11:18:47;;;;;;;9.68;1.63;;;12.90;99.90;;;;;;5067019;28;20053;-71
2022/10/19 11:21:20;;;;;;;8.30;1.42;;;12.80;99.90;;;;;;5065653;28;20047;-71
2022/10/19 11:24:08;;;;;;;11.70;2.08;;;12.70;99.90;;;;;;5065887;28;20110;-70
2022/10/19 11:26:51;;;;;;;10.60;1.42;;;12.70;99.90;;;;;;5066294;28;20116;-70
2022/10/19 11:29:42;;;;;;;10.90;1.23;;;12.70;99.90;;;;;;5067944;28;20056;-70
2022/10/19 11:32:26;;;;;;;14.10;1.65;;;12.70;99.90;;;;;;5065679;28;20083;-70
2022/10/19 11:35:01;;;;;;;12.63;1.42;;;12.60;99.90;;;;;;5066210;28;20057;-70
2022/10/19 11:37:46;;;;;;;12.30;1.20;;;12.60;99.90;;;;;;5066418;28;20052;-70
2022/10/19 11:40:20;;;;;;;9.70;1.50;;;12.60;99.90;;;;;;5045440;28;20567;-70
2022/10/19 11:43:16;;;;;;;9.23;1.63;;;12.60;99.90;;;;;;5059679;28;20804;-70
2022/10/19 11:45:57;;;;;;;5.50;1.00;;;12.80;99.90;;;;;;5054073;28;20417;-70
2022/10/19 11:48:29;;;;;;;13.68;1.30;;;12.70;99.90;;;;;;5066639;28;20053;-70
2022/10/19 11:51:01;;;;;;;10.52;1.58;;;12.70;99.90;;;;;;5065576;28;20067;-70
2022/10/19 11:53:36;;;;;;;9.95;1.45;;;12.70;99.90;;;;;;5068471;28;20110;-70
2022/10/19 11:56:20;;;;;;;9.85;1.30;;;12.70;99.90;;;;;;5068518;28;20056;-70
2022/10/19 11:58:52;;;;;;;10.00;1.30;;;12.70;99.90;;;;;;5093144;28;20054;-70
2022/10/19 12:01:40;;;;;;;9.43;1.30;;;12.70;99.90;;;;;;5061720;28;20040;-70
2022/10/19 12:04:40;;;;;;;9.55;1.75;;;12.70;99.90;;;;;;5067629;28;20045;-71
2022/10/19 12:07:31;;;;;;;9.93;1.77;;;12.70;99.90;;;;;;5048758;28;20528;-70
2022/10/19 12:10:30;;;;;;;8.05;1.33;;;12.80;99.90;;;;;;5063286;28;20494;-70
2022/10/19 12:13:00;;;;;;;4.03;0.90;;;12.80;99.90;;;;;;5061099;28;20053;-69
2022/10/19 12:15:36;;;;;;;8.80;1.20;;;12.70;99.90;;;;;;5049809;28;20127;-69
2022/10/19 12:18:14;;;;;;;8.43;1.38;;;12.70;99.90;;;;;;5064600;28;20123;-69
2022/10/19 12:20:48;;;;;;;10.90;1.33;;;12.70;99.90;;;;;;5064947;28;20072;-70
2022/10/19 12:23:33;;;;;;;10.05;1.60;;;12.80;99.90;;;;;;5067011;28;20472;-69
2022/10/19 12:26:03;;;;;;;9.60;1.40;;;12.70;99.90;;;;;;5048701;28;20045;-70
2022/10/19 12:28:32;;;;;;;9.13;1.42;;;12.80;99.90;;;;;;5081295;28;20064;-70
2022/10/19 12:31:00;;;;;;;10.48;1.48;;;12.80;99.90;;;;;;5068235;28;20084;-69
2022/10/19 12:33:52;;;;;;;9.23;1.60;;;12.80;99.90;;;;;;5067057;28;20410;-70
2022/10/19 12:36:43;;;;;;;6.53;1.30;;;12.90;99.90;;;;;;5068520;28;20139;-70
2022/10/19 12:39:17;;;;;;;6.47;1.00;;;12.90;99.90;;;;;;5064918;28;20033;-70
2022/10/19 12:42:02;;;;;;;8.45;1.65;;;12.90;99.90;;;;;;5065757;28;20047;-70
2022/10/19 12:44:40;;;;;;;8.73;1.25;;;12.90;99.90;;;;;;5065664;28;20036;-70
2022/10/19 12:47:15;;;;;;;11.25;1.65;;;13.10;99.90;;;;;;5068432;28;20637;-71
2022/10/19 12:49:53;;;;;;;8.30;1.38;;;13.00;99.90;;;;;;5067146;28;20500;-71
2022/10/19 12:52:51;;;;;;;11.88;1.30;;;13.00;99.90;;;;;;5068331;28;20044;-70
2022/10/19 12:55:16;;;;;;;10.40;1.58;;;13.00;99.90;;;;;;5064821;28;20037;-70
2022/10/19 12:57:47;;;;;;;12.00;2.03;;;13.10;99.90;;;;;;5066866;28;20048;-70
2022/10/19 13:00:29;;;;;;;7.18;1.27;;;13.00;99.90;;;;;;5068886;28;20123;-71
2022/10/19 13:03:05;;;;;;;9.73;1.20;;;13.00;99.90;;;;;;5059125;28;20067;-70
2022/10/19 13:05:32;;;;;;;7.80;1.85;;;13.00;99.90;;;;;;5068136;28;20049;-70